Time;durP1;ratioP1;P1;durP2;ratioP2;P2;SDS_P1;SDS_P2;PMS_P1;PMS_P2;Temp;Humidity;BMP_temperature;BMP_pressure;BME280_temperature;BME280_humidity;BME280_pressure;Samples;Min_cycle;Max_cycle;Signal;HPM_P1;HPM_P2
2024/03/16 00:00:11;;;;;;;;;;;;;;;3.47;76.35;96655.16;7395810;19;1663;-69
2024/03/16 00:02:40;;;;;;;;;;;;;;;3.52;76.69;96649.91;7395001;19;1081;-68
2024/03/16 00:05:09;;;;;;;;;;;;;;;3.56;75.96;96650.78;7393304;19;1842;-70
2024/03/16 00:07:37;;;;;;;;;;;;;;;3.47;76.00;96649.13;7394915;19;1834;-71
2024/03/16 00:10:06;;;;;;;;;;;;;;;3.54;75.78;96650.78;7394512;19;1967;-66
2024/03/16 00:12:35;;;;;;;;;;;;;;;3.59;75.80;96653.34;7395196;19;1008;-71
2024/03/16 00:15:04;;;;;;;;;;;;;;;3.62;76.32;96643.84;7394582;19;1017;-70
2024/03/16 00:17:35;;;;;;;;;;;;;;;3.67;76.35;96644.63;7394505;19;1029;-70
2024/03/16 00:20:06;;;;;;;;;;;;;;;3.67;76.20;96631.69;7395007;19;1028;-65
2024/03/16 00:22:34;;;;;;;;;;;;;;;3.60;76.96;96634.34;7394820;19;966;-68
2024/03/16 00:25:03;;;;;;;;;;;;;;;3.69;77.88;96636.00;7394956;19;1853;-65
2024/03/16 00:27:33;;;;;;;;;;;;;;;3.72;78.27;96631.66;7394250;19;1092;-68
2024/03/16 00:30:01;;;;;;;;;;;;;;;3.77;78.63;96629.88;7394774;19;1046;-67
2024/03/16 00:32:30;;;;;;;;;;;;;;;3.86;78.60;96625.50;7394644;19;1033;-70
2024/03/16 00:35:01;;;;;;;;;;;;;;;3.89;77.96;96631.47;7394508;19;1844;-68
2024/03/16 00:37:29;;;;;;;;;;;;;;;3.91;78.71;96632.34;7394475;19;1023;-70
2024/03/16 00:39:57;;;;;;;;;;;;;;;3.98;78.92;96627.09;7394603;19;1013;-68
2024/03/16 00:42:26;;;;;;;;;;;;;;;4.06;79.00;96629.63;7393972;19;1033;-65
2024/03/16 00:44:54;;;;;;;;;;;;;;;4.01;78.57;96630.50;7394488;19;1021;-68
2024/03/16 00:47:23;;;;;;;;;;;;;;;4.06;78.79;96632.19;7393706;19;1045;-71
2024/03/16 00:49:52;;;;;;;;;;;;;;;4.11;78.74;96625.22;7393718;19;1014;-68
2024/03/16 00:52:23;;;;;;;;;;;;;;;4.16;78.20;96624.28;7393582;19;1045;-70
2024/03/16 00:54:51;;;;;;;;;;;;;;;4.22;78.15;96625.13;7394049;19;954;-67
2024/03/16 00:57:20;;;;;;;;;;;;;;;4.24;76.99;96619.03;7393908;19;1051;-66
2024/03/16 00:59:48;;;;;;;;;;;;;;;4.22;76.24;96619.94;7393894;19;1055;-69
2024/03/16 01:02:17;;;;;;;;;;;;;;;4.15;76.95;96620.00;7393336;19;971;-68
2024/03/16 01:04:46;;;;;;;;;;;;;;;4.10;77.29;96621.81;7393805;19;1105;-67
2024/03/16 01:07:14;;;;;;;;;;;;;;;4.11;77.75;96610.56;7391659;19;1926;-69
2024/03/16 01:09:46;;;;;;;;;;;;;;;4.12;77.39;96611.44;7393131;19;1081;-70
2024/03/16 01:12:14;;;;;;;;;;;;;;;4.14;77.37;96610.53;7393111;19;1033;-71
2024/03/16 01:14:43;;;;;;;;;;;;;;;4.13;77.03;96595.84;7393400;19;1901;-70
2024/03/16 01:17:12;;;;;;;;;;;;;;;4.14;76.83;96605.34;7396335;19;1005;-71
2024/03/16 01:19:41;;;;;;;;;;;;;;;4.15;75.77;96608.78;7400302;19;1040;-71
2024/03/16 01:22:10;;;;;;;;;;;;;;;4.08;75.75;96600.25;7400662;19;1028;-69
2024/03/16 01:24:38;;;;;;;;;;;;;;;4.03;75.37;96605.47;7400587;19;1921;-69
2024/03/16 01:27:09;;;;;;;;;;;;;;;3.99;75.44;96611.56;7397891;19;1837;-68
2024/03/16 01:29:38;;;;;;;;;;;;;;;3.87;75.19;96615.13;7399978;19;1245;-67
2024/03/16 01:32:08;;;;;;;;;;;;;;;3.78;75.07;96616.06;7400370;19;966;-65
2024/03/16 01:34:36;;;;;;;;;;;;;;;3.75;75.30;96608.34;7399916;19;1896;-69
2024/03/16 01:37:05;;;;;;;;;;;;;;;3.73;75.42;96619.59;7399717;19;1128;-67
2024/03/16 01:39:33;;;;;;;;;;;;;;;3.75;75.30;96615.22;7400085;19;1924;-67
2024/03/16 01:42:03;;;;;;;;;;;;;;;3.75;74.95;96620.41;7399960;19;1037;-65
2024/03/16 01:44:34;;;;;;;;;;;;;;;3.65;74.47;96614.47;7400028;19;1005;-69
2024/03/16 01:47:03;;;;;;;;;;;;;;;3.61;74.44;96613.63;7397561;19;1842;-67
2024/03/16 01:49:31;;;;;;;;;;;;;;;3.58;74.55;96613.66;7399412;19;1096;-69
2024/03/16 01:52:00;;;;;;;;;;;;;;;3.56;74.44;96619.72;7399593;19;1732;-67
2024/03/16 01:54:28;;;;;;;;;;;;;;;3.55;74.45;96626.63;7399264;19;1048;-69
2024/03/16 01:56:57;;;;;;;;;;;;;;;3.50;74.48;96623.22;7399476;19;1859;-72
2024/03/16 01:59:25;;;;;;;;;;;;;;;3.39;74.49;96633.66;7399311;19;1921;-68
2024/03/16 02:01:56;;;;;;;;;;;;;;;3.33;75.31;96628.53;7399278;19;1805;-69
2024/03/16 02:04:25;;;;;;;;;;;;;;;3.25;75.08;96626.03;7399438;19;1139;-68
2024/03/16 02:06:53;;;;;;;;;;;;;;;3.22;75.37;96621.72;7397699;19;1850;-67
2024/03/16 02:09:23;;;;;;;;;;;;;;;3.12;75.50;96622.66;7399028;19;946;-71
2024/03/16 02:11:51;;;;;;;;;;;;;;;3.07;75.20;96616.66;7396949;19;1092;-69
2024/03/16 02:14:19;;;;;;;;;;;;;;;2.96;75.69;96614.13;7399004;19;1791;-67
2024/03/16 02:16:48;;;;;;;;;;;;;;;2.93;75.82;96611.56;7398932;19;2002;-65
2024/03/16 02:19:19;;;;;;;;;;;;;;;2.92;76.21;96618.47;7398793;19;1929;-68
2024/03/16 02:21:50;;;;;;;;;;;;;;;2.94;76.15;96618.44;7398442;19;1037;-66
2024/03/16 02:24:18;;;;;;;;;;;;;;;2.92;76.03;96618.47;7398808;19;1038;-66
2024/03/16 02:26:47;;;;;;;;;;;;;;;2.83;76.15;96616.78;7397335;19;1846;-67
2024/03/16 02:29:18;;;;;;;;;;;;;;;2.85;77.03;96614.19;7396786;19;1045;-66
2024/03/16 02:31:46;;;;;;;;;;;;;;;2.89;77.75;96618.50;7397983;19;1025;-71
2024/03/16 02:34:14;;;;;;;;;;;;;;;2.90;77.54;96622.78;7398478;19;1004;-65
2024/03/16 02:36:43;;;;;;;;;;;;;;;2.96;77.12;96625.34;7397845;19;1218;-67
2024/03/16 02:39:14;;;;;;;;;;;;;;;2.96;76.49;96633.09;7398094;19;1838;-68
2024/03/16 02:41:42;;;;;;;;;;;;;;;2.97;76.67;96634.81;7397893;19;1171;-68
2024/03/16 02:44:11;;;;;;;;;;;;;;;2.99;76.73;96638.25;7398212;19;1031;-70
2024/03/16 02:46:39;;;;;;;;;;;;;;;3.01;76.76;96635.66;7396632;19;1857;-67
2024/03/16 02:49:08;;;;;;;;;;;;;;;3.05;76.35;96639.94;7397875;19;1910;-69
2024/03/16 02:51:36;;;;;;;;;;;;;;;3.04;75.46;96640.78;7397284;19;1057;-70
2024/03/16 02:54:05;;;;;;;;;;;;;;;2.98;75.13;96646.84;7397360;19;1084;-70
2024/03/16 02:56:36;;;;;;;;;;;;;;;2.90;75.37;96646.06;7398031;19;1752;-71
2024/03/16 02:59:05;;;;;;;;;;;;;;;2.84;75.65;96640.91;7397119;19;1131;-66
2024/03/16 03:01:34;;;;;;;;;;;;;;;2.75;76.34;96645.28;7396998;19;1036;-71
2024/03/16 03:04:03;;;;;;;;;;;;;;;2.76;77.38;96651.28;7397438;19;1031;-72
2024/03/16 03:06:32;;;;;;;;;;;;;;;2.75;77.60;96654.75;7396557;19;1845;-70
2024/03/16 03:09:00;;;;;;;;;;;;;;;2.78;78.86;96657.31;7397293;19;980;-70
2024/03/16 03:11:29;;;;;;;;;;;;;;;2.86;79.51;96655.53;7395378;19;1881;-67
2024/03/16 03:14:00;;;;;;;;;;;;;;;2.89;79.79;96659.84;7396594;19;1033;-70
2024/03/16 03:16:29;;;;;;;;;;;;;;;2.86;78.99;96665.88;7396507;19;1092;-64
2024/03/16 03:18:57;;;;;;;;;;;;;;;2.82;79.41;96664.19;7396809;19;1969;-72
2024/03/16 03:21:26;;;;;;;;;;;;;;;2.72;80.36;96671.13;7396299;19;1048;-71
2024/03/16 03:23:54;;;;;;;;;;;;;;;2.71;81.15;96671.13;7396576;19;1021;-68
2024/03/16 03:26:23;;;;;;;;;;;;;;;2.69;82.77;96672.84;7395890;19;1935;-70
2024/03/16 03:28:52;;;;;;;;;;;;;;;2.78;82.44;96673.69;7396161;19;1077;-68
2024/03/16 03:31:24;;;;;;;;;;;;;;;2.85;81.96;96673.63;7396484;19;1039;-68
2024/03/16 03:33:52;;;;;;;;;;;;;;;2.88;81.34;96664.16;7395850;19;1037;-68
2024/03/16 03:36:20;;;;;;;;;;;;;;;2.88;79.72;96671.03;7396584;19;1699;-65
2024/03/16 03:38:49;;;;;;;;;;;;;;;2.74;79.04;96666.78;7396202;19;1839;-68
2024/03/16 03:41:18;;;;;;;;;;;;;;;2.73;78.86;96669.38;7393840;19;971;-69
2024/03/16 03:43:47;;;;;;;;;;;;;;;2.64;78.57;96668.56;7395730;19;1038;-68
2024/03/16 03:46:28;;;;;;;;;;;;;;;2.52;78.58;96660.88;7395297;19;1856;-71
2024/03/16 03:49:10;;;;;;;;;;;;;;;2.49;78.56;96671.22;7396004;19;965;-63
2024/03/16 03:51:39;;;;;;;;;;;;;;;2.53;78.29;96665.19;7395849;19;989;-66
2024/03/16 03:54:08;;;;;;;;;;;;;;;2.52;78.22;96658.28;7395637;19;1810;-67
2024/03/16 03:56:37;;;;;;;;;;;;;;;2.50;78.50;96667.78;7395289;19;1153;-71
2024/03/16 03:59:05;;;;;;;;;;;;;;;2.55;78.08;96665.16;7395504;19;1787;-73
2024/03/16 04:01:34;;;;;;;;;;;;;;;2.57;77.40;96666.88;7395359;19;1904;-70
2024/03/16 04:04:05;;;;;;;;;;;;;;;2.53;77.49;96673.78;7395416;19;1048;-73
2024/03/16 04:06:34;;;;;;;;;;;;;;;2.57;77.43;96669.47;7394518;19;1834;-67
2024/03/16 04:09:02;;;;;;;;;;;;;;;2.60;77.25;96673.75;7395368;19;977;-71
2024/03/16 04:11:31;;;;;;;;;;;;;;;2.58;76.56;96678.94;7393340;19;1040;-67
2024/03/16 04:13:59;;;;;;;;;;;;;;;2.57;76.04;96677.22;7394795;19;1037;-68
2024/03/16 04:16:27;;;;;;;;;;;;;;;2.57;76.09;96678.94;7395016;19;1916;-65
2024/03/16 04:18:56;;;;;;;;;;;;;;;2.56;76.33;96675.47;7394658;19;1147;-66
2024/03/16 04:21:27;;;;;;;;;;;;;;;2.60;76.39;96679.78;7394950;19;964;-69
2024/03/16 04:23:55;;;;;;;;;;;;;;;2.59;75.87;96685.81;7394521;19;1024;-68
2024/03/16 04:26:25;;;;;;;;;;;;;;;2.56;75.98;96688.41;7394499;19;1842;-67
2024/03/16 04:28:54;;;;;;;;;;;;;;;2.56;76.17;96693.56;7394605;19;1989;-64
2024/03/16 04:31:22;;;;;;;;;;;;;;;2.56;76.27;96690.13;7394862;19;1029;-67
2024/03/16 04:33:51;;;;;;;;;;;;;;;2.53;76.34;96694.44;7395135;19;1756;-73
2024/03/16 04:36:19;;;;;;;;;;;;;;;2.39;76.29;96697.09;7394176;19;1040;-70
2024/03/16 04:38:51;;;;;;;;;;;;;;;2.41;76.93;96699.66;7394528;19;980;-67
2024/03/16 04:41:19;;;;;;;;;;;;;;;2.44;77.14;96712.53;7394130;19;1095;-68
2024/03/16 04:43:48;;;;;;;;;;;;;;;2.44;77.15;96709.13;7394356;19;981;-71
2024/03/16 04:46:16;;;;;;;;;;;;;;;2.43;77.21;96716.00;7393928;19;1069;-69
2024/03/16 04:48:45;;;;;;;;;;;;;;;2.44;77.35;96722.03;7394290;19;1027;-70
2024/03/16 04:51:14;;;;;;;;;;;;;;;2.42;77.09;96716.88;7394202;19;1016;-64
2024/03/16 04:53:43;;;;;;;;;;;;;;;2.47;76.96;96719.44;7401321;19;1073;-63
2024/03/16 04:56:14;;;;;;;;;;;;;;;2.48;77.48;96716.00;7401597;19;992;-71
2024/03/16 04:58:42;;;;;;;;;;;;;;;2.49;78.24;96717.69;7401611;19;1067;-71
2024/03/16 05:01:13;;;;;;;;;;;;;;;2.53;78.29;96716.84;7401297;19;893;-68
2024/03/16 05:03:42;;;;;;;;;;;;;;;2.62;78.42;96726.28;7400985;19;1116;-67
2024/03/16 05:06:10;;;;;;;;;;;;;;;2.67;78.67;96721.94;7400863;19;1100;-68
2024/03/16 05:08:39;;;;;;;;;;;;;;;2.79;78.44;96728.78;7398503;19;1846;-62
2024/03/16 05:11:07;;;;;;;;;;;;;;;2.97;78.34;96727.84;7399011;19;1161;-71
2024/03/16 05:13:38;;;;;;;;;;;;;;;3.57;78.81;96725.78;7397821;19;965;-73
2024/03/16 05:16:10;;;;;;;;;;;;;;;4.46;75.86;96727.63;7398252;19;1016;-69
2024/03/16 05:18:38;;;;;;;;;;;;;;;5.14;70.79;96735.44;7400584;19;1065;-72
2024/03/16 05:21:08;;;;;;;;;;;;;;;6.00;68.17;96742.84;7400874;19;1052;-66
2024/03/16 05:23:37;;;;;;;;;;;;;;;6.59;65.26;96750.53;7400250;19;1112;-69
2024/03/16 05:26:06;;;;;;;;;;;;;;;6.94;62.39;96748.97;7400454;19;1775;-67
2024/03/16 05:28:34;;;;;;;;;;;;;;;7.33;60.49;96753.38;7398124;19;1842;-67
2024/03/16 05:31:06;;;;;;;;;;;;;;;7.70;58.75;96751.69;7400490;19;1061;-71
2024/03/16 05:33:35;;;;;;;;;;;;;;;7.95;58.07;96758.97;7399965;19;1025;-66
2024/03/16 05:36:05;;;;;;;;;;;;;;;8.24;57.45;96757.38;7400273;19;1056;-66
2024/03/16 05:38:33;;;;;;;;;;;;;;;8.58;56.71;96759.13;7399756;19;1092;-66
2024/03/16 05:41:03;;;;;;;;;;;;;;;9.05;55.39;96746.56;7400021;19;1794;-68
2024/03/16 05:43:31;;;;;;;;;;;;;;;9.47;53.94;96766.25;7399638;19;1014;-64
2024/03/16 05:46:00;;;;;;;;;;;;;;;9.50;54.28;96760.94;7399866;19;1981;-71
2024/03/16 05:48:31;;;;;;;;;;;;;;;9.29;54.51;96760.69;7398078;19;1853;-67
2024/03/16 05:51:01;;;;;;;;;;;;;;;9.08;54.33;96768.25;7399860;19;1036;-64
2024/03/16 05:53:30;;;;;;;;;;;;;;;8.74;54.91;96766.56;7399888;19;1207;-67
2024/03/16 05:55:58;;;;;;;;;;;;;;;8.28;56.32;96773.81;7399503;19;1796;-67
2024/03/16 05:58:28;;;;;;;;;;;;;;;7.83;57.84;96758.34;7399496;19;1037;-68
2024/03/16 06:00:57;;;;;;;;;;;;;;;7.48;59.92;96756.53;7399462;19;1056;-68
2024/03/16 06:03:28;;;;;;;;;;;;;;;7.26;61.68;96750.06;7396769;19;1056;-70
2024/03/16 06:05:59;;;;;;;;;;;;;;;7.05;62.82;96744.41;7398927;19;1092;-67
2024/03/16 06:08:28;;;;;;;;;;;;;;;6.95;64.35;96741.16;7397177;19;1856;-69
2024/03/16 06:10:57;;;;;;;;;;;;;;;6.99;66.17;96741.97;7397247;19;1173;-69
2024/03/16 06:13:25;;;;;;;;;;;;;;;7.08;68.06;96740.91;7398646;19;1110;-66
2024/03/16 06:15:54;;;;;;;;;;;;;;;7.20;68.14;96747.59;7398526;19;1127;-70
2024/03/16 06:18:22;;;;;;;;;;;;;;;7.39;68.53;96742.00;7398452;19;1119;-71
2024/03/16 06:20:51;;;;;;;;;;;;;;;7.64;68.81;96749.22;7398688;19;1882;-66
2024/03/16 06:23:22;;;;;;;;;;;;;;;7.91;68.74;96750.34;7398858;19;1028;-70
2024/03/16 06:25:53;;;;;;;;;;;;;;;8.15;68.74;96755.84;7398180;19;926;-68
2024/03/16 06:28:21;;;;;;;;;;;;;;;8.21;69.63;96757.44;7396717;19;1853;-67
2024/03/16 06:30:56;;;;;;;;;;;;;;;8.08;70.34;96749.94;7398015;19;997;-66
2024/03/16 06:33:30;;;;;;;;;;;;;;;7.85;70.37;96753.09;7397912;19;1100;-68
2024/03/16 06:35:59;;;;;;;;;;;;;;;7.22;72.68;96753.59;7397795;19;1195;-68
2024/03/16 06:38:31;;;;;;;;;;;;;;;6.97;75.14;96753.25;7397618;19;1095;-66
2024/03/16 06:40:59;;;;;;;;;;;;;;;7.10;75.62;96754.72;7398048;19;1093;-66
2024/03/16 06:43:27;;;;;;;;;;;;;;;7.26;75.90;96751.81;7397877;19;961;-69
2024/03/16 06:45:56;;;;;;;;;;;;;;;7.39;75.09;96762.81;7397869;19;964;-68
2024/03/16 06:48:24;;;;;;;;;;;;;;;7.48;75.45;96760.00;7396281;19;1854;-67
2024/03/16 06:50:53;;;;;;;;;;;;;;;7.48;76.16;96765.22;7397672;19;1913;-68
2024/03/16 06:53:21;;;;;;;;;;;;;;;7.51;76.40;96761.69;7398111;19;1740;-67
2024/03/16 06:55:55;;;;;;;;;;;;;;;7.41;75.49;96761.88;7397272;19;1005;-66
2024/03/16 06:58:24;;;;;;;;;;;;;;;7.50;75.50;96759.97;7397628;19;1523;-67
2024/03/16 07:00:53;;;;;;;;;;;;;;;7.69;75.53;96765.63;7397021;19;1026;-66
2024/03/16 07:03:21;;;;;;;;;;;;;;;7.86;76.50;96772.19;7397428;19;964;-70
2024/03/16 07:05:49;;;;;;;;;;;;;;;7.99;77.16;96775.34;7397295;19;1814;-67
2024/03/16 07:08:18;;;;;;;;;;;;;;;8.16;76.26;96774.97;7395796;19;1857;-70
2024/03/16 07:10:47;;;;;;;;;;;;;;;8.39;75.64;96781.31;7395781;19;1326;-69
2024/03/16 07:13:18;;;;;;;;;;;;;;;8.54;75.11;96774.91;7397151;19;1032;-69
2024/03/16 07:15:47;;;;;;;;;;;;;;;8.58;72.81;96781.78;7396641;19;1017;-66
2024/03/16 07:18:15;;;;;;;;;;;;;;;8.60;73.00;96777.34;7396470;19;1998;-66
2024/03/16 07:20:46;;;;;;;;;;;;;;;8.73;72.61;96780.47;7396630;19;1830;-70
2024/03/16 07:23:15;;;;;;;;;;;;;;;8.91;72.51;96779.13;7396783;19;1048;-68
2024/03/16 07:25:43;;;;;;;;;;;;;;;9.10;72.14;96776.03;7396216;19;1887;-70
2024/03/16 07:28:13;;;;;;;;;;;;;;;9.26;71.99;96773.81;7395323;19;1841;-69
2024/03/16 07:30:44;;;;;;;;;;;;;;;9.51;71.24;96775.69;7396145;19;1112;-66
2024/03/16 07:33:13;;;;;;;;;;;;;;;9.97;71.41;96772.59;7396407;19;1024;-66
2024/03/16 07:35:42;;;;;;;;;;;;;;;10.31;70.43;96781.06;7395983;19;1045;-69
2024/03/16 07:38:11;;;;;;;;;;;;;;;10.80;69.35;96781.19;7396178;19;885;-69
2024/03/16 07:40:39;;;;;;;;;;;;;;;11.15;69.76;96772.13;7396068;19;1603;-68
2024/03/16 07:43:09;;;;;;;;;;;;;;;11.37;67.90;96774.81;7396164;19;941;-67
2024/03/16 07:45:41;;;;;;;;;;;;;;;11.32;65.99;96772.34;7395550;19;1041;-67
2024/03/16 07:48:13;;;;;;;;;;;;;;;11.37;65.56;96770.44;7394942;19;1857;-69
2024/03/16 07:50:41;;;;;;;;;;;;;;;11.36;65.99;96773.97;7395471;19;1013;-67
2024/03/16 07:53:10;;;;;;;;;;;;;;;11.31;67.30;96775.91;7395491;19;1097;-68
2024/03/16 07:55:40;;;;;;;;;;;;;;;11.49;67.06;96763.88;7395747;19;1008;-67
2024/03/16 07:58:08;;;;;;;;;;;;;;;11.87;66.69;96770.31;7395303;19;1115;-67
2024/03/16 08:00:36;;;;;;;;;;;;;;;12.02;65.50;96774.09;7395407;19;1814;-67
2024/03/16 08:03:05;;;;;;;;;;;;;;;12.16;64.33;96778.78;7395509;19;1056;-69
2024/03/16 08:05:36;;;;;;;;;;;;;;;12.20;66.85;96766.41;7394988;19;1930;-69
2024/03/16 08:08:05;;;;;;;;;;;;;;;12.26;64.66;96774.88;7394859;19;1841;-67
2024/03/16 08:10:33;;;;;;;;;;;;;;;12.32;64.49;96776.41;7393942;19;1111;-67
2024/03/16 08:13:02;;;;;;;;;;;;;;;12.66;64.39;96768.88;7395288;19;1064;-69
2024/03/16 08:15:31;;;;;;;;;;;;;;;13.07;63.80;96767.16;7394726;19;982;-68
2024/03/16 08:18:00;;;;;;;;;;;;;;;13.29;62.94;96769.66;7394631;19;1037;-67
2024/03/16 08:20:29;;;;;;;;;;;;;;;13.46;62.43;96762.78;7394556;19;1109;-66
2024/03/16 08:23:00;;;;;;;;;;;;;;;13.85;61.91;96771.53;7394502;19;906;-67
2024/03/16 08:25:29;;;;;;;;;;;;;;;13.98;61.72;96769.16;7394894;19;957;-67
2024/03/16 08:27:58;;;;;;;;;;;;;;;14.18;60.00;96769.97;7392496;19;1846;-69
2024/03/16 08:30:27;;;;;;;;;;;;;;;14.16;60.57;96770.03;7394662;19;1943;-66
2024/03/16 08:32:56;;;;;;;;;;;;;;;13.98;62.16;96767.38;7394191;19;930;-68
2024/03/16 08:35:24;;;;;;;;;;;;;;;14.32;60.29;96775.41;7394170;19;1188;-68
2024/03/16 08:37:53;;;;;;;;;;;;;;;14.72;60.04;96775.16;7394485;19;1909;-70
2024/03/16 08:40:24;;;;;;;;;;;;;;;14.53;59.44;96775.25;7394531;19;2057;-69
2024/03/16 08:42:53;;;;;;;;;;;;;;;14.54;60.01;96782.22;7394023;19;1029;-67
2024/03/16 08:45:22;;;;;;;;;;;;;;;14.68;60.03;96776.25;7394491;19;1059;-69
2024/03/16 08:47:50;;;;;;;;;;;;;;;14.98;58.54;96766.88;7394081;19;1850;-63
2024/03/16 08:50:19;;;;;;;;;;;;;;;14.98;59.00;96775.66;7393919;19;1112;-69
2024/03/16 08:52:48;;;;;;;;;;;;;;;14.93;57.50;96782.91;7394215;19;1809;-69
2024/03/16 08:55:17;;;;;;;;;;;;;;;14.90;58.10;96780.47;7393738;19;1030;-67
2024/03/16 08:57:49;;;;;;;;;;;;;;;14.75;56.92;96787.34;7394174;19;1016;-65
2024/03/16 09:00:18;;;;;;;;;;;;;;;14.68;56.32;96781.53;7394141;19;1016;-67
2024/03/16 09:02:47;;;;;;;;;;;;;;;14.80;56.95;96779.22;7394069;19;945;-70
2024/03/16 09:05:15;;;;;;;;;;;;;;;15.03;56.38;96793.84;7393586;19;1120;-69
2024/03/16 09:07:44;;;;;;;;;;;;;;;14.58;54.33;96793.44;7393810;19;1063;-69
2024/03/16 09:10:13;;;;;;;;;;;;;;;14.64;56.10;96786.09;7391038;19;1842;-67
2024/03/16 09:12:41;;;;;;;;;;;;;;;14.84;51.71;96789.50;7393256;19;1076;-67
2024/03/16 09:15:13;;;;;;;;;;;;;;;14.71;54.06;96784.00;7393165;19;1067;-68
2024/03/16 09:17:41;;;;;;;;;;;;;;;14.77;55.72;96783.69;7393132;19;1044;-68
2024/03/16 09:20:10;;;;;;;;;;;;;;;14.70;53.40;96791.97;7393441;19;967;-66
2024/03/16 09:22:39;;;;;;;;;;;;;;;14.69;51.35;96791.13;7393280;19;1809;-67
2024/03/16 09:25:08;;;;;;;;;;;;;;;14.75;50.28;96795.25;7393328;19;1036;-68
2024/03/16 09:27:37;;;;;;;;;;;;;;;14.60;52.10;96788.97;7392898;19;1045;-70
2024/03/16 09:30:08;;;;;;;;;;;;;;;14.46;51.04;96789.66;7391058;19;1970;-69
2024/03/16 09:32:40;;;;;;;;;;;;;;;14.40;54.72;96789.03;7393214;19;976;-67
2024/03/16 09:35:10;;;;;;;;;;;;;;;14.71;53.09;96775.25;7392534;19;1033;-69
2024/03/16 09:37:39;;;;;;;;;;;;;;;14.85;54.98;96780.72;7392596;19;1025;-69
2024/03/16 09:40:10;;;;;;;;;;;;;;;14.89;54.54;96784.00;7398134;19;1115;-67
2024/03/16 09:42:39;;;;;;;;;;;;;;;15.11;52.91;96782.91;7400268;19;1012;-68
2024/03/16 09:45:17;;;;;;;;;;;;;;;14.92;54.35;96781.22;7399614;19;1148;-68
2024/03/16 09:47:48;;;;;;;;;;;;;;;15.18;52.66;96781.66;7400021;19;980;-68
2024/03/16 09:50:17;;;;;;;;;;;;;;;14.99;52.89;96781.78;7397460;19;1838;-67
2024/03/16 09:52:51;;;;;;;;;;;;;;;14.89;50.96;96779.59;7399812;19;973;-69
2024/03/16 09:55:20;;;;;;;;;;;;;;;14.76;54.14;96779.38;7399643;19;958;-69
2024/03/16 09:57:51;;;;;;;;;;;;;;;14.71;51.33;96777.88;7399609;19;1051;-63
2024/03/16 10:00:21;;;;;;;;;;;;;;;14.58;51.79;96778.50;7399571;19;965;-66
2024/03/16 10:02:53;;;;;;;;;;;;;;;14.58;54.22;96773.25;7399137;19;1029;-69
2024/03/16 10:05:22;;;;;;;;;;;;;;;14.86;53.46;96766.59;7398916;19;1131;-67
2024/03/16 10:07:50;;;;;;;;;;;;;;;14.75;56.13;96766.28;7399400;19;1118;-70
2024/03/16 10:10:20;;;;;;;;;;;;;;;14.77;53.63;96767.91;7396254;19;1846;-69
2024/03/16 10:12:49;;;;;;;;;;;;;;;14.86;54.68;96758.69;7398793;19;1072;-67
2024/03/16 10:15:22;;;;;;;;;;;;;;;14.92;52.74;96768.06;7398602;19;1191;-66
2024/03/16 10:17:54;;;;;;;;;;;;;;;14.87;53.50;96762.19;7398659;19;1080;-66
2024/03/16 10:20:24;;;;;;;;;;;;;;;15.05;54.32;96760.34;7398424;19;985;-65
2024/03/16 10:22:54;;;;;;;;;;;;;;;14.96;51.88;96771.41;7398456;19;1854;-67
2024/03/16 10:25:23;;;;;;;;;;;;;;;14.83;52.23;96756.22;7398243;19;1123;-67
2024/03/16 10:27:54;;;;;;;;;;;;;;;14.82;51.65;96761.56;7398235;19;1061;-67
2024/03/16 10:30:23;;;;;;;;;;;;;;;14.60;49.52;96762.66;7396520;19;1845;-69
2024/03/16 10:32:54;;;;;;;;;;;;;;;14.43;53.52;96748.56;7398403;19;1993;-68
2024/03/16 10:35:33;;;;;;;;;;;;;;;14.28;54.74;96748.41;7397975;19;1029;-67
2024/03/16 10:38:02;;;;;;;;;;;;;;;14.70;53.09;96753.34;7397945;19;1135;-67
2024/03/16 10:40:31;;;;;;;;;;;;;;;14.66;54.27;96746.53;7397944;19;1076;-64
2024/03/16 10:43:01;;;;;;;;;;;;;;;14.74;52.69;96746.97;7397860;19;1009;-64
2024/03/16 10:45:32;;;;;;;;;;;;;;;14.62;50.13;96750.25;7397679;19;1037;-66
2024/03/16 10:48:03;;;;;;;;;;;;;;;14.38;54.46;96738.25;7397644;19;1084;-65
2024/03/16 10:50:32;;;;;;;;;;;;;;;14.30;52.00;96744.84;7394393;19;1849;-69
2024/03/16 10:53:03;;;;;;;;;;;;;;;14.50;50.16;96730.66;7398336;19;1658;-66
2024/03/16 10:55:33;;;;;;;;;;;;;;;14.20;50.08;96736.53;7397399;19;1108;-68
2024/03/16 10:58:02;;;;;;;;;;;;;;;13.94;52.91;96734.25;7397299;19;1072;-67
2024/03/16 11:00:34;;;;;;;;;;;;;;;13.79;49.80;96730.63;7397208;19;1001;-66
2024/03/16 11:03:12;;;;;;;;;;;;;;;13.67;53.79;96726.78;7397624;19;1008;-67
2024/03/16 11:05:46;;;;;;;;;;;;;;;13.82;52.28;96721.72;7396879;19;1112;-66
2024/03/16 11:08:24;;;;;;;;;;;;;;;14.06;52.86;96714.38;7397286;19;966;-65
2024/03/16 11:10:53;;;;;;;;;;;;;;;14.36;54.04;96707.69;7394684;19;1905;-70
2024/03/16 11:13:25;;;;;;;;;;;;;;;14.33;52.71;96711.31;7396676;19;1171;-67
2024/03/16 11:15:54;;;;;;;;;;;;;;;14.48;50.38;96712.31;7396576;19;1128;-67
2024/03/16 11:18:34;;;;;;;;;;;;;;;14.58;49.65;96717.97;7396519;19;1096;-66
2024/03/16 11:21:08;;;;;;;;;;;;;;;14.62;51.48;96706.34;7396476;19;1025;-69
2024/03/16 11:23:36;;;;;;;;;;;;;;;14.71;48.61;96710.28;7396494;19;1029;-67
2024/03/16 11:26:20;;;;;;;;;;;;;;;14.44;49.62;96705.50;7396788;19;1048;-67
2024/03/16 11:28:49;;;;;;;;;;;;;;;14.22;50.30;96697.84;7396130;19;1826;-67
2024/03/16 11:31:29;;;;;;;;;;;;;;;14.39;52.35;96692.59;7396429;19;1900;-68
2024/03/16 11:33:55;;;;;;;;;;;;;;;14.57;50.78;96697.00;7396011;19;1070;-69
2024/03/16 11:36:29;;;;;;;;;;;;;;;14.69;51.83;96691.06;7396396;19;1012;-67
2024/03/16 11:38:55;;;;;;;;;;;;;;;14.83;50.84;96685.13;7395843;19;1142;-69
2024/03/16 11:41:24;;;;;;;;;;;;;;;14.73;51.57;96684.75;7395766;19;1044;-68
2024/03/16 11:43:51;;;;;;;;;;;;;;;14.88;49.31;96682.25;7396266;19;1039;-65
2024/03/16 11:46:19;;;;;;;;;;;;;;;14.73;51.49;96684.75;7395586;19;1135;-67
2024/03/16 11:48:46;;;;;;;;;;;;;;;14.76;51.73;96673.19;7395308;19;1831;-67
2024/03/16 11:51:15;;;;;;;;;;;;;;;14.89;50.29;96676.03;7395416;19;950;-67
2024/03/16 11:53:44;;;;;;;;;;;;;;;14.76;51.29;96674.03;7395417;19;1087;-69
2024/03/16 11:56:13;;;;;;;;;;;;;;;14.71;50.84;96668.16;7395264;19;1107;-68
2024/03/16 11:58:40;;;;;;;;;;;;;;;14.95;49.55;96667.81;7395281;19;1111;-67
2024/03/16 12:01:12;;;;;;;;;;;;;;;15.18;49.14;96664.88;7391336;19;1025;-70
2024/03/16 12:03:38;;;;;;;;;;;;;;;15.30;47.66;96661.56;7395709;19;1000;-67
2024/03/16 12:06:09;;;;;;;;;;;;;;;15.34;48.56;96664.88;7395517;19;1205;-71
2024/03/16 12:08:35;;;;;;;;;;;;;;;15.12;47.89;96663.41;7395071;19;1001;-68
2024/03/16 12:11:08;;;;;;;;;;;;;;;15.00;50.98;96657.91;7392738;19;1849;-68
2024/03/16 12:13:35;;;;;;;;;;;;;;;15.20;50.41;96652.47;7395013;19;1185;-65
2024/03/16 12:16:03;;;;;;;;;;;;;;;15.24;49.97;96646.09;7393502;19;961;-69
2024/03/16 12:18:31;;;;;;;;;;;;;;;15.15;48.47;96660.63;7395206;19;1032;-66
2024/03/16 12:20:59;;;;;;;;;;;;;;;15.08;51.59;96646.09;7392729;19;1092;-69
2024/03/16 12:23:28;;;;;;;;;;;;;;;15.11;51.20;96649.38;7394560;19;1151;-67
2024/03/16 12:25:58;;;;;;;;;;;;;;;15.11;49.64;96653.81;7394429;19;1096;-67
2024/03/16 12:28:27;;;;;;;;;;;;;;;14.71;48.37;96654.13;7394465;19;1099;-70
2024/03/16 12:30:58;;;;;;;;;;;;;;;14.67;50.88;96650.81;7393029;19;1849;-68
2024/03/16 12:33:25;;;;;;;;;;;;;;;14.55;51.11;96646.19;7394332;19;1064;-65
2024/03/16 12:35:53;;;;;;;;;;;;;;;14.22;48.93;96643.47;7394143;19;1025;-68
2024/03/16 12:38:19;;;;;;;;;;;;;;;14.12;51.20;96640.44;7394202;19;1004;-67
2024/03/16 12:40:48;;;;;;;;;;;;;;;14.07;48.91;96652.13;7393973;19;1032;-68
2024/03/16 12:43:14;;;;;;;;;;;;;;;13.93;47.72;96652.84;7394588;19;1016;-69
2024/03/16 12:45:45;;;;;;;;;;;;;;;13.84;49.23;96640.97;7394464;19;1032;-66
2024/03/16 12:48:11;;;;;;;;;;;;;;;13.80;51.64;96636.81;7394488;19;1020;-67
2024/03/16 12:50:39;;;;;;;;;;;;;;;13.74;51.05;96643.22;7392218;19;1857;-68
2024/03/16 12:53:07;;;;;;;;;;;;;;;13.59;51.41;96636.94;7393831;19;1048;-65
2024/03/16 12:55:36;;;;;;;;;;;;;;;13.45;51.42;96637.59;7393647;19;1013;-66
2024/03/16 12:58:03;;;;;;;;;;;;;;;13.38;51.54;96648.38;7393681;19;1100;-66
2024/03/16 13:00:31;;;;;;;;;;;;;;;13.36;50.31;96637.09;7393915;19;1033;-67
2024/03/16 13:03:00;;;;;;;;;;;;;;;13.47;50.01;96636.59;7393582;19;934;-67
2024/03/16 13:05:28;;;;;;;;;;;;;;;13.49;49.20;96633.88;7393476;19;1108;-69
2024/03/16 13:07:54;;;;;;;;;;;;;;;13.58;50.60;96636.06;7393677;19;850;-66
2024/03/16 13:10:23;;;;;;;;;;;;;;;13.64;51.17;96634.94;7390763;19;1856;-66
2024/03/16 13:12:49;;;;;;;;;;;;;;;13.56;51.88;96629.19;7395143;19;1013;-70
2024/03/16 13:15:18;;;;;;;;;;;;;;;13.81;51.66;96628.84;7400750;19;1029;-69